Time;durP1;ratioP1;P1;durP2;ratioP2;P2;SDS_P1;SDS_P2;PMS_P1;PMS_P2;Temp;Humidity;BMP_temperature;BMP_pressure;BME280_temperature;BME280_humidity;BME280_pressure;Samples;Min_cycle;Max_cycle;Signal;HPM_P1;HPM_P2
2021/03/18 00:01:20;;;;;;;9.13;3.80;;;0.80;90.60;;;;;;4924842;29;20054;-50
2021/03/18 00:03:54;;;;;;;11.63;4.82;;;0.80;90.40;;;;;;4927828;29;20051;-47
2021/03/18 00:06:26;;;;;;;16.10;5.18;;;0.80;90.70;;;;;;4926768;29;20126;-48
2021/03/18 00:09:00;;;;;;;11.32;4.97;;;0.80;90.90;;;;;;4927539;29;20072;-52
2021/03/18 00:11:35;;;;;;;12.20;5.03;;;0.90;91.30;;;;;;4925181;29;20051;-50
2021/03/18 00:14:04;;;;;;;14.55;5.57;;;0.90;91.10;;;;;;4926795;29;20075;-48
2021/03/18 00:16:35;;;;;;;15.43;4.95;;;0.90;91.10;;;;;;4929759;29;20075;-48
2021/03/18 00:19:14;;;;;;;10.15;5.28;;;0.90;91.10;;;;;;4938525;28;20052;-52
2021/03/18 00:21:45;;;;;;;20.88;6.03;;;0.90;91.20;;;;;;5007663;28;20061;-50
2021/03/18 00:24:19;;;;;;;12.60;5.18;;;1.00;91.40;;;;;;5007361;28;20056;-50
2021/03/18 00:26:45;;;;;;;12.10;4.47;;;1.00;91.50;;;;;;5006535;28;20050;-50
2021/03/18 00:29:15;;;;;;;16.30;5.28;;;0.90;91.20;;;;;;5011495;28;20042;-50
2021/03/18 00:31:47;;;;;;;14.05;5.75;;;0.90;91.10;;;;;;5009283;28;20046;-50
2021/03/18 00:34:17;;;;;;;14.65;5.80;;;1.00;91.20;;;;;;4993837;28;20052;-53
2021/03/18 00:36:44;;;;;;;16.65;5.30;;;0.90;91.20;;;;;;5008467;28;20053;-47
2021/03/18 00:39:19;;;;;;;11.63;5.68;;;0.90;91.20;;;;;;5010771;28;20661;-49
2021/03/18 00:41:52;;;;;;;14.07;6.22;;;0.90;91.20;;;;;;5008739;28;20498;-50
2021/03/18 00:44:29;;;;;;;11.65;5.70;;;0.90;91.30;;;;;;5012355;28;20414;-49
2021/03/18 00:47:00;;;;;;;12.52;5.68;;;0.90;91.40;;;;;;5006975;28;20768;-49
2021/03/18 00:49:37;;;;;;;20.02;7.28;;;0.80;91.70;;;;;;5010499;28;20050;-51
2021/03/18 00:52:12;;;;;;;10.90;5.68;;;0.90;91.70;;;;;;5010805;28;20046;-48
2021/03/18 00:54:48;;;;;;;12.45;5.78;;;0.80;91.80;;;;;;5010640;28;20132;-49
2021/03/18 00:57:17;;;;;;;14.65;5.25;;;0.80;91.70;;;;;;5010940;28;20165;-51
2021/03/18 00:59:46;;;;;;;17.45;6.28;;;0.80;92.00;;;;;;5010300;28;20557;-47
2021/03/18 01:02:18;;;;;;;10.77;6.20;;;0.70;91.90;;;;;;5007256;28;20046;-50
2021/03/18 01:04:45;;;;;;;17.25;5.85;;;0.70;92.40;;;;;;5007133;28;20042;-51
2021/03/18 01:07:16;;;;;;;11.68;6.28;;;0.60;92.50;;;;;;5009437;28;20125;-50
2021/03/18 01:09:46;;;;;;;14.13;5.63;;;0.60;92.60;;;;;;5010426;28;20060;-51
2021/03/18 01:12:17;;;;;;;14.18;7.22;;;0.60;92.60;;;;;;5005038;28;20560;-48
2021/03/18 01:14:45;;;;;;;12.48;5.70;;;0.60;92.50;;;;;;5009473;28;20192;-53
2021/03/18 01:17:12;;;;;;;16.40;7.32;;;0.60;92.20;;;;;;5008575;28;20054;-50
2021/03/18 01:19:41;;;;;;;12.95;5.97;;;0.60;92.40;;;;;;5009699;28;20498;-50
2021/03/18 01:22:14;;;;;;;12.50;5.60;;;0.50;91.90;;;;;;5009883;28;20045;-55
2021/03/18 01:24:45;;;;;;;11.35;5.75;;;0.60;92.00;;;;;;5010131;28;20127;-48
2021/03/18 01:27:13;;;;;;;12.90;5.82;;;0.50;91.80;;;;;;5009101;28;20124;-50
2021/03/18 01:29:39;;;;;;;12.80;6.25;;;0.50;91.90;;;;;;5006717;28;20092;-48
2021/03/18 01:32:05;;;;;;;15.70;7.60;;;0.60;92.30;;;;;;5005519;28;20050;-49
2021/03/18 01:34:31;;;;;;;15.95;6.00;;;0.60;92.30;;;;;;5015706;28;20469;-47
2021/03/18 01:37:04;;;;;;;12.98;6.75;;;0.60;92.20;;;;;;5009038;28;20127;-50
2021/03/18 01:39:35;;;;;;;17.47;6.57;;;0.60;92.20;;;;;;5007659;28;20093;-47
2021/03/18 01:42:04;;;;;;;18.30;7.18;;;0.60;92.50;;;;;;4985049;28;20142;-48
2021/03/18 01:44:32;;;;;;;14.77;6.70;;;0.60;92.60;;;;;;5010603;28;20050;-48
2021/03/18 01:47:01;;;;;;;15.27;7.10;;;0.70;92.70;;;;;;5004437;28;20072;-48
2021/03/18 01:49:31;;;;;;;15.70;6.95;;;0.70;92.80;;;;;;5010202;28;20050;-49
2021/03/18 01:51:59;;;;;;;13.90;7.50;;;0.70;92.80;;;;;;5009799;28;20053;-49
2021/03/18 01:54:25;;;;;;;14.27;6.85;;;0.70;92.80;;;;;;5009578;28;20046;-50
2021/03/18 01:56:54;;;;;;;15.10;6.75;;;0.70;92.90;;;;;;5012422;28;20053;-48
2021/03/18 01:59:24;;;;;;;15.60;7.63;;;0.80;92.90;;;;;;5008667;28;20144;-47
2021/03/18 02:01:58;;;;;;;11.90;6.73;;;0.80;92.90;;;;;;5008870;28;20096;-46
2021/03/18 02:04:27;;;;;;;17.48;6.82;;;0.80;92.50;;;;;;5007313;28;20587;-49
2021/03/18 02:06:58;;;;;;;12.85;5.88;;;0.80;92.60;;;;;;5008865;28;20097;-48
2021/03/18 02:09:27;;;;;;;14.52;7.22;;;0.80;92.50;;;;;;5011022;28;20869;-48
2021/03/18 02:11:54;;;;;;;12.63;6.63;;;0.70;92.20;;;;;;5006433;28;20049;-49
2021/03/18 02:14:20;;;;;;;13.63;7.00;;;0.70;92.50;;;;;;5008696;28;20069;-49
2021/03/18 02:16:53;;;;;;;18.98;7.90;;;0.70;92.50;;;;;;5008206;28;20060;-47
2021/03/18 02:19:39;;;;;;;15.90;6.28;;;0.70;92.50;;;;;;5006512;28;20053;-52
2021/03/18 02:22:10;;;;;;;18.65;7.38;;;0.60;92.80;;;;;;5014616;28;20070;-47
2021/03/18 02:25:24;;;;;;;22.05;7.55;;;0.60;93.10;;;;;;5009142;28;20049;-48
2021/03/18 02:28:23;;;;;;;15.63;7.28;;;0.60;93.00;;;;;;4927805;29;20047;-49
2021/03/18 02:31:03;;;;;;;21.55;7.95;;;0.60;93.00;;;;;;4928489;29;20187;-50
2021/03/18 02:33:52;;;;;;;18.85;7.90;;;0.60;93.00;;;;;;4928186;29;20086;-47
2021/03/18 02:36:22;;;;;;;17.63;7.57;;;0.60;93.00;;;;;;4928044;29;20052;-49
2021/03/18 02:39:06;;;;;;;12.40;7.50;;;0.70;93.10;;;;;;4927776;29;20050;-51
2021/03/18 02:41:39;;;;;;;15.73;7.93;;;0.70;93.10;;;;;;4927387;29;20205;-50
2021/03/18 02:44:23;;;;;;;20.08;8.68;;;0.70;92.90;;;;;;4928102;29;20134;-50
2021/03/18 02:47:12;;;;;;;12.27;7.82;;;0.70;92.90;;;;;;4927558;29;20529;-49
2021/03/18 02:49:49;;;;;;;15.25;6.70;;;0.70;92.90;;;;;;4933370;29;20059;-51
2021/03/18 02:52:25;;;;;;;15.10;7.72;;;0.60;92.60;;;;;;4925964;29;20560;-49
2021/03/18 02:55:05;;;;;;;14.32;6.65;;;0.50;92.40;;;;;;4928137;29;20432;-49
2021/03/18 02:57:38;;;;;;;19.33;8.07;;;0.50;92.20;;;;;;4928258;29;20062;-52
2021/03/18 03:00:08;;;;;;;15.35;7.78;;;0.50;92.20;;;;;;4930202;29;20576;-50
2021/03/18 03:02:35;;;;;;;15.73;7.10;;;0.40;92.80;;;;;;4927621;28;20481;-52
2021/03/18 03:05:04;;;;;;;18.75;8.18;;;0.40;92.40;;;;;;5005960;28;20081;-51
2021/03/18 03:07:37;;;;;;;19.60;7.40;;;0.40;92.70;;;;;;5008693;28;20049;-52
2021/03/18 03:10:08;;;;;;;11.55;7.18;;;0.50;92.80;;;;;;5006237;28;20129;-48
2021/03/18 03:12:38;;;;;;;15.82;8.90;;;0.40;92.50;;;;;;5004681;28;20064;-48
2021/03/18 03:15:07;;;;;;;13.88;7.82;;;0.40;92.60;;;;;;5010837;28;20485;-48
2021/03/18 03:17:41;;;;;;;16.40;7.18;;;0.40;92.90;;;;;;5008116;28;20060;-48
2021/03/18 03:20:15;;;;;;;16.60;7.53;;;0.40;92.70;;;;;;5002992;28;20100;-53
2021/03/18 03:22:47;;;;;;;16.17;7.03;;;0.30;92.70;;;;;;5014928;28;20045;-55
2021/03/18 03:25:19;;;;;;;13.73;7.82;;;0.30;92.50;;;;;;5007147;28;20052;-50
2021/03/18 03:27:55;;;;;;;15.77;7.95;;;0.30;92.80;;;;;;5002700;28;20050;-48
2021/03/18 03:30:29;;;;;;;18.45;8.68;;;0.20;92.90;;;;;;5005214;28;20141;-50
2021/03/18 03:32:55;;;;;;;16.73;8.75;;;0.20;92.90;;;;;;5009009;28;20045;-54
2021/03/18 03:35:21;;;;;;;16.77;8.27;;;0.20;93.20;;;;;;5007837;28;20076;-49
2021/03/18 03:37:56;;;;;;;13.35;7.50;;;0.20;93.00;;;;;;5007760;28;20217;-50
2021/03/18 03:40:29;;;;;;;13.15;7.78;;;0.20;93.10;;;;;;5008326;28;20068;-49
2021/03/18 03:42:55;;;;;;;19.13;7.95;;;0.20;93.10;;;;;;5007159;28;20137;-49
2021/03/18 03:45:24;;;;;;;12.60;7.88;;;0.20;93.10;;;;;;5007312;28;20395;-50
2021/03/18 03:47:50;;;;;;;18.65;8.40;;;0.20;92.80;;;;;;5010783;28;20121;-47
2021/03/18 03:50:24;;;;;;;15.48;9.27;;;0.20;93.10;;;;;;5003841;28;20050;-55
2021/03/18 03:53:16;;;;;;;13.45;7.90;;;0.20;93.30;;;;;;5008068;28;20076;-50
2021/03/18 03:55:59;;;;;;;17.60;9.07;;;0.20;93.20;;;;;;5007217;28;20057;-55
2021/03/18 03:58:46;;;;;;;16.15;9.13;;;0.20;93.30;;;;;;5003357;28;20050;-52
2021/03/18 04:01:23;;;;;;;22.83;9.82;;;0.20;93.40;;;;;;5002710;28;20050;-49
2021/03/18 04:03:52;;;;;;;19.05;9.52;;;0.20;93.10;;;;;;5007950;28;20046;-49
2021/03/18 04:06:21;;;;;;;24.08;8.85;;;0.30;93.50;;;;;;5007202;28;20100;-49
2021/03/18 04:08:47;;;;;;;17.48;9.13;;;0.30;93.80;;;;;;5007814;28;20064;-51
2021/03/18 04:11:15;;;;;;;13.40;8.32;;;0.30;93.70;;;;;;5008873;28;20057;-52
2021/03/18 04:13:43;;;;;;;14.77;8.25;;;0.30;93.50;;;;;;5005921;28;20060;-52
2021/03/18 04:16:10;;;;;;;15.48;7.95;;;0.30;93.20;;;;;;5008384;28;20050;-48
2021/03/18 04:18:42;;;;;;;16.20;9.52;;;0.30;93.20;;;;;;5012559;28;20042;-49
2021/03/18 04:21:11;;;;;;;19.48;9.73;;;0.30;93.20;;;;;;5007601;28;20054;-51
2021/03/18 04:23:39;;;;;;;16.88;9.35;;;0.30;93.20;;;;;;4990414;28;20049;-49
2021/03/18 04:26:06;;;;;;;17.40;9.07;;;0.40;93.30;;;;;;5006208;28;20053;-50
2021/03/18 04:28:36;;;;;;;14.85;8.43;;;0.40;93.30;;;;;;5006494;28;20057;-49
2021/03/18 04:31:07;;;;;;;13.98;8.30;;;0.40;93.30;;;;;;5006148;28;20070;-49
2021/03/18 04:33:40;;;;;;;14.60;8.38;;;0.40;93.40;;;;;;5007667;28;20053;-48
2021/03/18 04:36:06;;;;;;;11.65;8.95;;;0.40;93.60;;;;;;5013601;28;20077;-50
2021/03/18 04:38:39;;;;;;;16.65;8.55;;;0.40;93.60;;;;;;5007486;28;20050;-53
2021/03/18 04:41:06;;;;;;;14.85;7.68;;;0.40;93.50;;;;;;5007120;28;20558;-51
2021/03/18 04:43:37;;;;;;;16.00;8.75;;;0.40;93.20;;;;;;5002707;28;20088;-53
2021/03/18 04:46:11;;;;;;;14.80;7.38;;;0.40;93.20;;;;;;5006375;28;20806;-50
2021/03/18 04:48:44;;;;;;;15.98;8.30;;;0.40;93.30;;;;;;5006559;28;20104;-51
2021/03/18 04:51:13;;;;;;;14.10;7.78;;;0.50;93.40;;;;;;5007273;28;20069;-48
2021/03/18 04:53:39;;;;;;;14.15;9.10;;;0.50;93.30;;;;;;5006871;28;20060;-50
2021/03/18 04:56:07;;;;;;;15.30;8.75;;;0.50;93.20;;;;;;5006926;28;20515;-55
2021/03/18 04:58:37;;;;;;;17.67;8.75;;;0.60;93.50;;;;;;5006028;28;20062;-52
2021/03/18 05:01:05;;;;;;;18.05;9.65;;;0.50;93.80;;;;;;5004247;28;20087;-48
2021/03/18 05:03:33;;;;;;;17.00;7.90;;;0.60;93.90;;;;;;5006729;28;20521;-51
2021/03/18 05:06:10;;;;;;;15.27;9.18;;;0.60;93.60;;;;;;5006294;28;20148;-51
2021/03/18 05:08:39;;;;;;;19.60;9.25;;;0.60;93.80;;;;;;5005058;28;20057;-51
2021/03/18 05:11:05;;;;;;;20.50;9.68;;;0.70;93.90;;;;;;5008381;28;20054;-49
2021/03/18 05:13:38;;;;;;;19.50;9.32;;;0.70;93.90;;;;;;5011007;28;20112;-50
2021/03/18 05:16:04;;;;;;;16.90;9.20;;;0.70;94.00;;;;;;5009292;28;20058;-50
2021/03/18 05:18:32;;;;;;;16.08;8.73;;;0.80;94.10;;;;;;5016025;28;20576;-50
2021/03/18 05:21:01;;;;;;;15.57;9.85;;;0.80;94.20;;;;;;5010151;28;20054;-50
2021/03/18 05:23:27;;;;;;;18.83;9.50;;;0.80;94.20;;;;;;5010379;28;20058;-52
2021/03/18 05:25:55;;;;;;;20.45;9.05;;;0.80;94.00;;;;;;5010260;28;20058;-50
2021/03/18 05:28:24;;;;;;;21.00;11.68;;;0.80;94.10;;;;;;5009443;28;20053;-54
2021/03/18 05:30:50;;;;;;;16.50;10.15;;;0.90;93.90;;;;;;5010165;28;20054;-49
2021/03/18 05:33:20;;;;;;;18.27;10.30;;;0.90;94.20;;;;;;5006965;28;20061;-51
2021/03/18 05:35:52;;;;;;;17.98;10.60;;;1.00;94.70;;;;;;5010008;28;20141;-49
2021/03/18 05:38:20;;;;;;;17.92;10.48;;;1.00;94.30;;;;;;5009679;28;20634;-50
2021/03/18 05:40:54;;;;;;;17.58;10.55;;;1.10;94.30;;;;;;5009064;28;20081;-50
2021/03/18 05:43:24;;;;;;;20.27;10.70;;;1.10;94.20;;;;;;5009210;28;20050;-51
2021/03/18 05:45:51;;;;;;;19.95;10.13;;;1.20;94.30;;;;;;5009872;28;20729;-51
2021/03/18 05:48:21;;;;;;;14.68;9.15;;;1.20;94.30;;;;;;5008651;28;20037;-51
2021/03/18 05:50:49;;;;;;;;;;;1.20;94.20;;;;;;5007890;28;20049;-51
2021/03/18 05:53:22;;;;;;;17.45;9.50;;;1.30;94.20;;;;;;5009261;28;19932;-51
2021/03/18 05:55:56;;;;;;;15.77;9.48;;;1.30;94.20;;;;;;5008863;28;20515;-51
2021/03/18 05:58:26;;;;;;;19.13;10.38;;;1.40;94.10;;;;;;5009468;28;20054;-48
2021/03/18 06:00:58;;;;;;;19.80;10.90;;;1.40;94.10;;;;;;5007243;28;20057;-52
2021/03/18 06:03:28;;;;;;;16.85;10.45;;;1.40;94.10;;;;;;5008848;28;20392;-49
2021/03/18 06:06:03;;;;;;;19.88;10.48;;;1.50;94.20;;;;;;5006974;28;20502;-52
2021/03/18 06:08:31;;;;;;;14.27;8.63;;;1.50;94.20;;;;;;5005428;28;20490;-51
2021/03/18 06:11:01;;;;;;;17.75;10.18;;;1.50;94.10;;;;;;5009542;28;20046;-48
2021/03/18 06:13:34;;;;;;;22.52;9.80;;;1.50;94.00;;;;;;5001984;28;20050;-48
2021/03/18 06:16:10;;;;;;;15.73;9.52;;;1.50;93.80;;;;;;5002771;28;20053;-50
2021/03/18 06:18:40;;;;;;;18.27;11.18;;;1.50;93.60;;;;;;5002196;28;20100;-47
2021/03/18 06:21:12;;;;;;;16.15;10.32;;;1.60;93.70;;;;;;5003509;28;20050;-54
2021/03/18 06:23:38;;;;;;;55.97;35.28;;;1.60;93.80;;;;;;4995677;28;21588;-55
2021/03/18 06:26:04;;;;;;;23.60;13.93;;;1.70;94.30;;;;;;5007929;28;20076;-56
2021/03/18 06:28:33;;;;;;;19.15;11.90;;;1.90;94.20;;;;;;5008108;28;20196;-60
2021/03/18 06:31:10;;;;;;;19.88;11.55;;;2.00;94.00;;;;;;5006030;28;20052;-49
2021/03/18 06:33:44;;;;;;;29.50;17.30;;;2.00;93.90;;;;;;5006016;28;20054;-52
2021/03/18 06:36:22;;;;;;;41.55;26.95;;;2.00;94.00;;;;;;5007029;28;20168;-51
2021/03/18 06:39:01;;;;;;;21.15;12.70;;;2.00;94.00;;;;;;5008175;28;20073;-48
2021/03/18 06:41:54;;;;;;;19.55;11.95;;;2.10;93.90;;;;;;4998671;28;20037;-54
2021/03/18 06:44:21;;;;;;;20.77;10.43;;;2.10;93.90;;;;;;5003653;28;20482;-52
2021/03/18 06:46:49;;;;;;;21.23;11.70;;;2.30;93.80;;;;;;5002958;28;20518;-52
2021/03/18 06:49:17;;;;;;;19.30;10.45;;;2.20;93.80;;;;;;4989773;28;20123;-58
2021/03/18 06:51:48;;;;;;;17.52;9.70;;;2.30;93.80;;;;;;5008097;28;20068;-53
2021/03/18 06:54:21;;;;;;;17.70;11.20;;;2.20;93.70;;;;;;5007555;28;20774;-50
2021/03/18 06:56:58;;;;;;;18.05;11.07;;;2.30;94.20;;;;;;5012891;28;20042;-54
2021/03/18 06:59:26;;;;;;;23.90;13.55;;;2.20;93.90;;;;;;5004578;28;20055;-41
2021/03/18 07:02:07;;;;;;;24.02;11.73;;;2.30;94.10;;;;;;5005227;28;20045;-44
2021/03/18 07:04:41;;;;;;;18.83;10.85;;;2.40;94.10;;;;;;4990131;28;20046;-41
2021/03/18 07:07:09;;;;;;;22.70;11.88;;;2.40;94.00;;;;;;5005158;28;20100;-41
2021/03/18 07:09:36;;;;;;;20.38;11.55;;;2.50;94.00;;;;;;5007821;28;20127;-43
2021/03/18 07:12:04;;;;;;;17.23;11.18;;;2.50;94.00;;;;;;5008167;28;20041;-40
2021/03/18 07:14:45;;;;;;;18.35;10.75;;;2.50;94.00;;;;;;4988601;28;20601;-42
2021/03/18 07:17:18;;;;;;;15.98;10.40;;;2.60;94.10;;;;;;5009617;28;20045;-44
2021/03/18 07:19:44;;;;;;;22.42;11.48;;;2.70;94.10;;;;;;5000190;28;20061;-42
2021/03/18 07:22:20;;;;;;;16.52;10.40;;;2.70;94.20;;;;;;5007031;28;20085;-40
2021/03/18 07:24:54;;;;;;;21.48;11.20;;;2.80;94.30;;;;;;5001695;28;20137;-40
2021/03/18 07:27:21;;;;;;;16.90;10.35;;;2.80;94.40;;;;;;5008203;28;20057;-40
2021/03/18 07:29:49;;;;;;;15.30;10.68;;;2.80;94.30;;;;;;5007431;28;20092;-43
2021/03/18 07:32:15;;;;;;;19.42;11.23;;;2.90;94.30;;;;;;5007717;28;20045;-40
2021/03/18 07:34:42;;;;;;;19.85;11.82;;;3.00;94.30;;;;;;5006107;28;20095;-57
2021/03/18 07:37:12;;;;;;;25.00;14.32;;;3.10;94.30;;;;;;4989880;28;20113;-54
2021/03/18 07:39:40;;;;;;;18.40;12.63;;;3.10;94.40;;;;;;5008259;28;20054;-51
2021/03/18 07:42:07;;;;;;;24.05;15.23;;;3.20;94.40;;;;;;5003333;28;20046;-50
2021/03/18 07:44:35;;;;;;;22.00;13.40;;;3.30;94.40;;;;;;5006662;28;20061;-52
2021/03/18 07:47:02;;;;;;;17.73;12.13;;;3.30;94.50;;;;;;4985907;28;20140;-55
2021/03/18 07:49:33;;;;;;;21.95;11.90;;;3.40;94.50;;;;;;4998253;28;20107;-51
2021/03/18 07:52:03;;;;;;;20.95;11.80;;;3.40;94.50;;;;;;5007411;28;20052;-52
2021/03/18 07:54:30;;;;;;;21.63;12.75;;;3.50;94.40;;;;;;4997182;28;20061;-49
2021/03/18 07:56:57;;;;;;;22.70;12.50;;;3.60;94.30;;;;;;4997662;28;20049;-53
2021/03/18 07:59:30;;;;;;;17.70;10.48;;;3.60;94.30;;;;;;5003213;28;20061;-51
2021/03/18 08:02:20;;;;;;;21.63;10.85;;;3.70;94.20;;;;;;5004460;28;20121;-51
2021/03/18 08:04:49;;;;;;;17.05;9.27;;;3.80;94.10;;;;;;5006482;28;20042;-50
2021/03/18 08:07:43;;;;;;;20.73;11.02;;;3.90;94.00;;;;;;5002994;28;20466;-54
2021/03/18 08:10:14;;;;;;;23.20;10.55;;;4.00;93.80;;;;;;5004416;28;20057;-51
2021/03/18 08:13:06;;;;;;;21.83;10.82;;;4.00;93.60;;;;;;5005866;28;20045;-53
2021/03/18 08:15:35;;;;;;;19.10;10.13;;;4.00;93.80;;;;;;4890481;29;20075;-52
2021/03/18 08:18:13;;;;;;;37.63;20.77;;;4.10;93.80;;;;;;4891499;29;20051;-49
2021/03/18 08:20:41;;;;;;;115.65;82.18;;;4.20;93.70;;;;;;4884181;29;20109;-59
2021/03/18 08:23:25;;;;;;;24.30;14.02;;;4.40;93.50;;;;;;4891302;29;20066;-58
2021/03/18 08:26:05;;;;;;;28.83;13.85;;;4.40;93.40;;;;;;4850472;29;20048;-55
2021/03/18 08:28:39;;;;;;;22.88;11.27;;;4.40;93.60;;;;;;4914874;29;20078;-51
2021/03/18 08:31:08;;;;;;;20.67;10.55;;;4.50;93.60;;;;;;4910986;29;20063;-57
2021/03/18 08:33:37;;;;;;;22.42;12.32;;;4.60;93.60;;;;;;4904540;29;20064;-59
2021/03/18 08:36:18;;;;;;;24.10;11.13;;;4.70;93.60;;;;;;4910276;29;20050;-55
2021/03/18 08:38:47;;;;;;;18.83;11.00;;;4.70;93.60;;;;;;4909315;29;20895;-54
2021/03/18 08:41:32;;;;;;;18.67;10.73;;;4.80;93.50;;;;;;4896340;29;20085;-57
2021/03/18 08:44:19;;;;;;;21.75;10.18;;;4.90;93.20;;;;;;4913879;29;20131;-54
2021/03/18 08:47:05;;;;;;;568.83;433.52;;;5.10;93.10;;;;;;4911322;29;20838;-53
2021/03/18 08:49:37;;;;;;;61.25;43.95;;;5.20;93.10;;;;;;4911497;29;20060;-53
2021/03/18 08:52:08;;;;;;;27.70;14.77;;;5.20;92.90;;;;;;4944225;28;20057;-50
2021/03/18 08:54:39;;;;;;;22.98;9.52;;;5.30;92.70;;;;;;4992977;28;20038;-54
2021/03/18 08:57:13;;;;;;;20.15;10.80;;;5.30;92.60;;;;;;5011413;28;20121;-53
2021/03/18 08:59:46;;;;;;;52.00;32.85;;;5.30;92.60;;;;;;5009672;28;20061;-51
2021/03/18 09:02:16;;;;;;;17.88;9.02;;;5.40;92.50;;;;;;5005831;28;20410;-52
2021/03/18 09:04:47;;;;;;;14.05;8.60;;;5.30;92.40;;;;;;5009328;28;20108;-49
2021/03/18 09:07:15;;;;;;;20.52;10.02;;;5.40;92.50;;;;;;5007066;28;20049;-50
2021/03/18 09:09:42;;;;;;;21.08;9.02;;;5.40;92.60;;;;;;5011458;28;20067;-53
2021/03/18 09:12:10;;;;;;;19.63;9.35;;;5.40;92.70;;;;;;5008826;28;20054;-52
2021/03/18 09:14:39;;;;;;;16.08;8.85;;;5.40;92.70;;;;;;5010191;28;20061;-49
2021/03/18 09:17:13;;;;;;;13.98;8.25;;;5.50;92.50;;;;;;5007442;28;20503;-50
2021/03/18 09:19:48;;;;;;;18.35;8.80;;;5.50;92.40;;;;;;5009721;28;20042;-48
2021/03/18 09:22:17;;;;;;;19.90;8.60;;;5.60;92.50;;;;;;5009093;28;20058;-52
2021/03/18 09:24:45;;;;;;;20.92;9.25;;;5.60;92.60;;;;;;5008900;28;20062;-48
2021/03/18 09:27:15;;;;;;;21.30;9.38;;;5.70;92.50;;;;;;5005646;28;20042;-49
2021/03/18 09:29:45;;;;;;;24.55;8.85;;;5.70;92.70;;;;;;5007810;28;20050;-54
2021/03/18 09:32:12;;;;;;;19.80;9.35;;;5.80;92.40;;;;;;5006838;28;20077;-56
2021/03/18 09:34:44;;;;;;;19.52;9.95;;;5.90;92.50;;;;;;5004514;28;20383;-55
2021/03/18 09:37:15;;;;;;;19.02;8.50;;;6.10;92.60;;;;;;5007159;28;20072;-52
2021/03/18 09:39:48;;;;;;;19.42;8.07;;;6.20;91.80;;;;;;5005818;28;20407;-59
2021/03/18 09:42:16;;;;;;;16.35;7.80;;;6.20;91.80;;;;;;5007616;28;20080;-49
2021/03/18 09:44:42;;;;;;;16.13;6.40;;;6.20;91.30;;;;;;5006913;28;20046;-47
2021/03/18 09:47:11;;;;;;;20.65;8.40;;;6.30;91.20;;;;;;5007314;28;20140;-47
2021/03/18 09:49:39;;;;;;;18.85;7.30;;;6.40;91.80;;;;;;5008895;28;20411;-47
2021/03/18 09:52:17;;;;;;;17.20;8.25;;;6.50;91.30;;;;;;5009084;28;20568;-51
2021/03/18 09:54:43;;;;;;;17.92;6.10;;;6.50;91.00;;;;;;5009094;28;20101;-48
2021/03/18 09:57:13;;;;;;;23.52;12.77;;;6.40;90.30;;;;;;5006894;28;20050;-48
2021/03/18 09:59:41;;;;;;;17.80;6.38;;;6.50;90.80;;;;;;5008101;28;20046;-49
2021/03/18 10:02:15;;;;;;;18.42;6.82;;;6.70;90.10;;;;;;5002762;28;20072;-52
2021/03/18 10:04:42;;;;;;;18.52;7.38;;;6.80;90.10;;;;;;5007623;28;20077;-50
2021/03/18 10:07:11;;;;;;;28.42;11.95;;;7.10;90.30;;;;;;5007109;28;20069;-43
2021/03/18 10:09:40;;;;;;;17.30;5.45;;;7.10;90.00;;;;;;5006849;28;20042;-41
2021/03/18 10:12:17;;;;;;;11.70;5.13;;;7.00;88.10;;;;;;5007531;28;20066;-41
2021/03/18 10:14:57;;;;;;;26.13;11.80;;;7.10;88.80;;;;;;5004996;28;20086;-42
2021/03/18 10:17:35;;;;;;;19.38;6.00;;;7.00;88.10;;;;;;5008943;28;20097;-45
2021/03/18 10:20:13;;;;;;;21.77;5.57;;;7.00;87.50;;;;;;5007756;28;20053;-42
2021/03/18 10:22:46;;;;;;;27.50;8.82;;;7.10;89.00;;;;;;5007767;28;20045;-47
2021/03/18 10:25:18;;;;;;;20.20;8.25;;;7.20;88.60;;;;;;5006946;28;20044;-46
2021/03/18 10:27:48;;;;;;;;;;;7.40;88.20;;;;;;5008258;28;20084;-42
2021/03/18 10:30:24;;;;;;;19.80;6.30;;;7.30;87.40;;;;;;5007365;28;20720;-42
2021/03/18 10:33:15;;;;;;;20.88;6.18;;;7.30;86.90;;;;;;5002886;28;20505;-44
2021/03/18 10:35:44;;;;;;;22.50;6.57;;;7.40;88.10;;;;;;5002589;28;20061;-44
2021/03/18 10:38:15;;;;;;;20.60;6.05;;;7.70;87.80;;;;;;5011306;28;20041;-50
2021/03/18 10:40:49;;;;;;;25.70;10.52;;;7.70;86.90;;;;;;4989510;28;20157;-49
2021/03/18 10:43:29;;;;;;;26.75;7.43;;;7.80;86.30;;;;;;4999493;28;20057;-47
2021/03/18 10:46:01;;;;;;;22.90;6.70;;;8.00;86.50;;;;;;5007253;28;20060;-47
2021/03/18 10:48:29;;;;;;;20.60;6.20;;;8.20;87.10;;;;;;5014704;28;20072;-46
2021/03/18 10:51:03;;;;;;;27.92;7.40;;;8.20;84.90;;;;;;5008954;28;20054;-47
2021/03/18 10:53:28;;;;;;;23.23;6.65;;;8.50;85.70;;;;;;5005980;28;20046;-48
2021/03/18 10:55:55;;;;;;;25.67;14.38;;;8.80;84.90;;;;;;5007875;28;20064;-43
2021/03/18 10:58:24;;;;;;;23.17;9.55;;;9.50;84.20;;;;;;5006363;28;20510;-42
2021/03/18 11:00:59;;;;;;;106.13;79.28;;;9.70;82.20;;;;;;5007563;28;20414;-43
2021/03/18 11:03:36;;;;;;;21.80;5.30;;;9.50;80.80;;;;;;4989234;28;20137;-44
2021/03/18 11:06:22;;;;;;;20.98;6.10;;;9.20;78.50;;;;;;5001089;28;20052;-44
2021/03/18 11:08:50;;;;;;;34.63;18.88;;;8.80;81.10;;;;;;5002980;28;20049;-43
2021/03/18 11:11:24;;;;;;;31.88;16.95;;;8.70;82.20;;;;;;5006081;28;20053;-44
2021/03/18 11:14:08;;;;;;;19.83;6.15;;;8.50;82.60;;;;;;5003836;28;20153;-45
2021/03/18 11:16:34;;;;;;;32.05;15.10;;;8.30;81.70;;;;;;4985508;28;20132;-44
2021/03/18 11:19:02;;;;;;;18.55;8.65;;;8.40;81.70;;;;;;5012810;28;20395;-45
2021/03/18 11:21:31;;;;;;;20.80;5.43;;;9.00;82.10;;;;;;5004895;28;20111;-44
2021/03/18 11:24:14;;;;;;;17.63;4.93;;;9.30;79.70;;;;;;5007780;28;20048;-42
2021/03/18 11:26:52;;;;;;;27.13;13.80;;;9.50;78.90;;;;;;5007091;28;20123;-42
2021/03/18 11:29:20;;;;;;;35.92;23.35;;;9.50;78.10;;;;;;5005476;28;20053;-45
2021/03/18 11:31:53;;;;;;;15.60;4.28;;;9.50;78.50;;;;;;5010343;28;20042;-46
2021/03/18 11:34:41;;;;;;;12.05;3.30;;;9.40;77.60;;;;;;5006671;28;20052;-43
2021/03/18 11:37:09;;;;;;;16.30;3.55;;;9.10;75.40;;;;;;5003132;28;20410;-44
2021/03/18 11:39:35;;;;;;;16.70;3.65;;;8.90;74.60;;;;;;5006173;28;20053;-43
2021/03/18 11:42:05;;;;;;;13.02;4.30;;;8.80;72.80;;;;;;4998501;28;20048;-43
2021/03/18 11:44:36;;;;;;;20.98;7.85;;;8.70;75.80;;;;;;5007578;28;20046;-43
2021/03/18 11:47:08;;;;;;;559.97;434.83;;;8.70;77.00;;;;;;5004184;28;20054;-41
2021/03/18 11:49:36;;;;;;;125.85;85.72;;;8.80;78.10;;;;;;5003472;28;20855;-42
2021/03/18 11:52:03;;;;;;;82.38;51.88;;;8.80;77.90;;;;;;5006805;28;20050;-44
2021/03/18 11:54:32;;;;;;;31.95;14.48;;;8.90;77.30;;;;;;5005972;28;20054;-43
2021/03/18 11:56:58;;;;;;;43.72;27.40;;;9.00;77.50;;;;;;5009303;28;20038;-43
2021/03/18 11:59:26;;;;;;;17.40;8.57;;;9.00;77.20;;;;;;5004795;28;20049;-43
2021/03/18 12:01:53;;;;;;;34.05;22.08;;;8.90;76.30;;;;;;5004526;28;20052;-44
2021/03/18 12:04:21;;;;;;;15.35;5.72;;;8.90;75.60;;;;;;5000663;28;20072;-44
2021/03/18 12:06:47;;;;;;;33.65;19.63;;;8.80;75.40;;;;;;5003610;28;20053;-43
2021/03/18 12:09:13;;;;;;;23.98;14.10;;;8.70;75.80;;;;;;5005903;28;20046;-42
2021/03/18 12:11:39;;;;;;;32.40;18.70;;;8.80;76.90;;;;;;5004548;28;20474;-45
2021/03/18 12:14:06;;;;;;;24.10;11.13;;;8.70;76.70;;;;;;4987487;28;20053;-44
2021/03/18 12:16:34;;;;;;;22.00;10.45;;;8.70;76.30;;;;;;5004983;28;20071;-43
2021/03/18 12:19:03;;;;;;;14.10;5.45;;;8.70;76.30;;;;;;5004474;28;20128;-42
2021/03/18 12:21:32;;;;;;;17.13;5.35;;;8.80;76.20;;;;;;5004026;28;20068;-42
2021/03/18 12:23:58;;;;;;;18.50;5.60;;;9.00;75.90;;;;;;5008278;28;20493;-44
2021/03/18 12:26:24;;;;;;;19.23;8.50;;;9.30;76.30;;;;;;5011470;28;20054;-43
2021/03/18 12:28:50;;;;;;;15.90;6.82;;;9.50;75.00;;;;;;5006595;28;20141;-42
2021/03/18 12:31:18;;;;;;;67.05;49.15;;;9.60;74.50;;;;;;5008641;28;20104;-44
2021/03/18 12:33:44;;;;;;;17.10;7.03;;;9.70;74.70;;;;;;5008439;28;20053;-42
2021/03/18 12:36:12;;;;;;;31.67;18.05;;;9.70;74.60;;;;;;4991601;28;20418;-43
2021/03/18 12:38:43;;;;;;;21.63;12.30;;;9.50;73.80;;;;;;5017675;28;20046;-45
2021/03/18 12:41:16;;;;;;;14.60;6.85;;;9.50;73.70;;;;;;5009971;28;20050;-45
2021/03/18 12:43:42;;;;;;;17.73;6.75;;;9.50;73.90;;;;;;5010337;28;20065;-42
2021/03/18 12:46:14;;;;;;;13.57;3.75;;;9.40;74.00;;;;;;5007363;28;20501;-45
2021/03/18 12:48:42;;;;;;;14.50;5.53;;;9.30;73.40;;;;;;5013257;28;20052;-44
2021/03/18 12:51:10;;;;;;;30.42;17.20;;;9.30;74.40;;;;;;5006526;28;20491;-40
2021/03/18 12:53:41;;;;;;;13.90;6.50;;;9.20;74.20;;;;;;5008865;28;20045;-42
2021/03/18 12:56:09;;;;;;;15.13;6.65;;;9.20;74.20;;;;;;5006424;28;20549;-44
2021/03/18 12:58:39;;;;;;;21.48;10.35;;;9.10;74.50;;;;;;5006565;28;20124;-42
2021/03/18 13:01:08;;;;;;;16.25;6.22;;;9.00;74.00;;;;;;5003230;28;20060;-42
2021/03/18 13:03:36;;;;;;;12.38;3.55;;;8.90;74.80;;;;;;5004641;28;20065;-41
2021/03/18 13:06:03;;;;;;;13.82;3.05;;;8.80;76.00;;;;;;5007738;28;20050;-43